Budd Lake, NJ (07828)

11:48 PM EDT on August 22, 2014 (GMT -0400)
KNJBUDDL3 | Change Station
CLOSE
Current Station
Personal Weather Station
Location: Budd Lake, NJ
Elevation: 1138 ft
Nearby Weather Stations

Elev 1138 ft 40.86 °N, 74.73 °W | Updated 3 minutes ago

Overcast
Overcast
64.6 °F
Feels Like 64.6 °F
N
1.6
Wind Variable Wind from East
Gusts 4.5 mph

Today
High -- | Low -- °F
--% Chance of Precip.
Yesterday
High -- | Low -- °F
Precip. -- in
6:15 AM 7:47 PM
Waning Crescent, 5% visible
Pressure 30.03 in
Visibility 10.0 miles
Clouds Overcast 4400 ft
Dew Point 7 °F
Humidity 10%
Rainfall 0.11 in
Snow Depth Not available.
UV 0 out of 12
Pollen 5.90 out of 12
Ozone Good
PM2.5 Good
Flu Activity Not available.
METAR KSMQ 230253Z AUTO 00000KT 10SM OVC044 21/16 A3003 RMK AO2 SLP169 T02060156 50004 $

More Conditions Fewer Conditions

Pressure 30.03 in
Visibility 10.0 miles
Clouds Overcast 4400 ft
Dew Point 7 °F
Humidity 10%
Rainfall 0.11 in
Snow Depth Not available.
UV 0 out of 12
Pollen 5.90 out of 12
Ozone Good
PM2.5 Good
Flu Activity Not available.
METAR KSMQ 230253Z AUTO 00000KT 10SM OVC044 21/16 A3003 RMK AO2 SLP169 T02060156 50004 $

More Conditions Fewer Conditions

10-Day Weather Forecast

Almanac

Astronomy

Aug. 22, 2014 Rise Set
Actual Time 6:15 AM EDT 7:47 PM EDT
Civil Twilight 5:47 AM EDT 8:15 PM EDT
Nautical Twilight 5:12 AM EDT 8:50 PM EDT
Astronomical Twilight 4:35 AM EDT 9:27 PM EDT
Moon 3:35 AM EDT (8/22) 5:54 PM EDT (8/22)
Length of Visible Light 14h 28m
Length of Day
13h 31m
Tomorrow will be 2m 31s shorter.
Waning Crescent, 5% of the Moon is Illuminated
Today
Waning Crescent
Aug 25
New
Sep 2
First Quarter
Sep 8
Full
Sep 15
Last Quarter

Today's Extremes

State Highs State Lows

Community

WunderPhotos

Upload Photos

1,746,352 photos uploaded!

WunderBlogs® & News

Nearby

Air Quality

  Air Quality AQ Index Pollutant
Yesterday Good
OZONE
Yesterday Good
PM2.5
Current Good
PM2.5
Current Good
OZONE
Friday Good
OZONE
Friday Good
PM2.5
Saturday Good
OZONE
Saturday Good
PM2.5
Sunday Good
PM2.5
Sunday Good
OZONE
Monday Good
PM2.5
Monday Good
OZONE

Snow Depth

Station Depth Elevation
No new snow has been reported.

Earthquake Activity

City Distance Mag. Time & Date
No recent earthquake activity has been reported nearby.
Minimum magnitude displayed is 2.5.

Coastal Water Temperatures

Place Temperature
No Stations Reporting

Nearby Weather Stations